Flight Track Log - Related Links

Times and Time Zones

All times are in EDT time to prevent confusion due to time zone crossing. See the AWI3778 flight status page for this flight to view local times or setup timezone preferences in your user account.

Time Position Orientation Groundspeed Altitude Reporting Facility
EDT Latitude Longitude Course Direction KTS MPH feet Rate Location/Type
Fri 01:39:00 PM 44.1682 -73.2594 196° South  Level FlightAware Approximate
Fri 01:40:00 PM 44.0690 -73.2990 196° South  Level FlightAware Approximate
Fri 01:40:18 PM 44.2944 -73.1622 196° South 283 326 6,900  Level Boston Center
Fri 01:41:00 PM 43.9699 -73.3388 196° South  Level FlightAware Approximate
Fri 01:41:19 PM 44.2108 -73.2133 204° Southwest 283 326 9,600  Level Boston Center
Fri 01:42:00 PM 43.8705 -73.3776 195° South  Level FlightAware Approximate
Fri 01:42:30 PM 44.1417 -73.2761 213° Southwest 291 335 11,700  Level Boston Center
Fri 01:43:00 PM 43.7708 -73.4144 195° South  Level FlightAware Approximate
Fri 01:43:31 PM 44.0492 -73.3586 213° Southwest 304 350 14,100  Level Boston Center
Fri 01:44:00 PM 43.6711 -73.4511 195° South  Level FlightAware Approximate
Fri 01:44:31 PM 43.9694 -73.4294 213° Southwest 335 386 15,600  Level Boston Center
Fri 01:45:31 PM 43.8856 -73.5031 212° Southwest 352 405 17,000 1,400 Climbing Boston Center
Fri 01:46:31 PM 43.7994 -73.5792 213° Southwest 368 423 18,400 1,500 Climbing Boston Center
Fri 01:47:31 PM 43.7131 -73.6550 212° Southwest 368 423 20,000 1,550 Climbing Boston Center
Fri 01:48:31 PM 43.6247 -73.7278 211° Southwest 368 423 21,500 1,250 Climbing Boston Center
Fri 01:49:31 PM 43.5406 -73.8033 213° Southwest 368 423 22,500 950 Climbing Boston Center
Fri 01:50:31 PM 43.4522 -73.8786 212° Southwest 368 423 23,400 700 Climbing Boston Center
Fri 01:51:31 PM 43.3719 -73.9511 213° Southwest 373 429 23,900 300 Climbing Boston Center
Fri 01:52:31 PM 43.2792 -74.0286 211° Southwest 381 438 24,000 50 Climbing Boston Center
Fri 01:53:31 PM 43.1822 -74.1114 212° Southwest 398 458 24,000  Level Boston Center
Fri 01:54:31 PM 43.0850 -74.1942 212° Southwest 410 472 24,000  Level Boston Center
Fri 01:55:30 PM 43.0089 -74.2631 214° Southwest 415 478 24,000  Level Boston Center
Fri 01:56:31 PM 42.8928 -74.3617 212° Southwest 420 483 24,000  Level Boston Center
Fri 01:57:31 PM 42.7933 -74.4433 211° Southwest 420 483 24,000  Level Boston Center
Fri 01:58:31 PM 42.6939 -74.5306 213° Southwest 420 483 24,000  Level Boston Center
Fri 01:59:31 PM 42.5964 -74.6119 212° Southwest 420 483 24,000  Level Boston Center
Fri 02:00:31 PM 42.4906 -74.7011 212° Southwest 420 483 24,000 -150 Level Boston Center
Fri 02:01:31 PM 42.3908 -74.7847 212° Southwest 420 483 23,700 -920 Descending Boston Center
Fri 02:03:14 PM 42.2214 -74.9208 211° Southwest 419 482 21,500 -1,244 Descending New York Center
Fri 02:04:15 PM 42.1375 -74.9967 214° Southwest 419 482 20,300 -1,140 Descending New York Center
Fri 02:05:15 PM 42.0411 -75.0742 211° Southwest 419 482 19,200 -667 Descending New York Center
Fri 02:06:12 PM 41.9425 -75.1542 211° Southwest 401 461 19,000 -102 Descending New York Center
Fri 02:07:13 PM 41.8500 -75.2344 213° Southwest 401 461 19,000 -545 Level New York Center
Fri 02:08:13 PM 41.7850 -75.3497 233° Southwest 384 442 17,900 -1,240 Descending New York Center
Fri 02:09:14 PM 41.7269 -75.4542 233° Southwest 394 453 16,500 -1,488 Descending New York Center
Fri 02:10:14 PM 41.6597 -75.5686 232° Southwest 400 460 14,900 -1,835 Descending New York Center
Fri 02:11:15 PM 41.5506 -75.5942 190° South 370 426 12,800 -1,462 Descending New York Center
Fri 02:12:13 PM 41.4433 -75.5669 169° South 376 433 12,000 -407 Descending New York Center
Fri 02:13:13 PM 41.3536 -75.6242 206° Southwest 354 407 12,000  Level New York Center
Fri 02:14:15 PM 41.2739 -75.6847 210° Southwest 359 413 12,000  Level New York Center
Fri 02:15:15 PM 41.1675 -75.6881 181° South 369 425 12,000 -103 Level New York Center
Fri 02:16:12 PM 41.0489 -75.6878 180° South 388 447 11,800 -407 Descending New York Center
Fri 02:17:13 PM 40.9383 -75.6878 180° South 398 458 11,200 -496 Descending New York Center
Fri 02:18:13 PM 40.8322 -75.6858 179° South 398 458 10,800 -446 Descending New York Center
Fri 02:19:14 PM 40.7281 -75.6864 180° South 393 452 10,300 -397 Descending New York Center
Fri 02:20:14 PM 40.6322 -75.6850 179° South 388 447 10,000 -150 Descending New York Center
Fri 02:21:14 PM 40.5381 -75.5964 144° Southeast 359 413 10,000  Level New York Center
Fri 02:22:12 PM 40.4758 -75.4828 126° Southeast 359 413 10,000  Level New York Center
Fri 02:23:13 PM 40.4078 -75.4100 141° Southeast 346 398 10,000 -645 Level New York Center
Fri 02:24:13 PM 40.3364 -75.3725 158° South 308 354 8,700 -1,289 Descending New York Center
Fri 02:25:14 PM 40.2600 -75.3567 171° South 289 333 7,400 -1,190 Descending New York Center
Fri 02:26:14 PM 40.1831 -75.3517 177° South 263 303 6,300 -694 Descending New York Center
Fri 02:27:15 PM 40.1247 -75.3478 177° South 242 278 6,000 -151 Descending New York Center
Fri 02:28:13 PM 40.0683 -75.2981 146° Southeast 217 250 6,000  Level New York Center
Fri 02:29:14 PM 40.0225 -75.2408 136° Southeast 228 262 6,000  Level New York Center
Fri 02:30:15 PM 39.9789 -75.1864 136° Southeast 228 262 6,000  Level New York Center
Fri 02:31:16 PM 39.9856 -75.1164 83° East 187 215 6,000  Level New York Center
Fri 02:32:13 PM 39.9986 -75.0442 77° East 192 221 6,000  Level New York Center
Fri 02:33:14 PM 40.0072 -74.9769 80° East 197 227 6,000 -148 Level New York Center
Fri 02:34:15 PM 39.9694 -74.9258 134° Southeast 174 200 5,700 -723 Descending New York Center
Fri 02:35:35 PM 39.9333 -74.9667 221° Southwest 191 220 4,300 -1,050 Descending Philadelphia TRACON

Login

Don't have an account? Register now (free) for customized features, flight alerts, and more!